Forum - i mitici sud

tutti gli utenti del gruppo possono partecipare le discussione con riferimento a sesso o non conforme a chatta.it verranno imossi

Amministratore
F.ranco52 17/03/2019 ore 08:30 Quota

(nessuno) Nowcasting Domenica 17 Marzo 2019

Buongiorno e Buona Domenica a tutti


Notizie Meteo dell'Italia da il Meteo .It


http://ilMeteo.It


la Situazione Italiana vista dal Sat









il Radar Europeo









Brindisi

METAR LIBR 170650Z 16006KT 9999 BKN015 13/11 Q1018=

METAT di Brindisi del 17 alle 6,50z

Vento da 160° S SE 6 nodi (11,112 km) Visibilitā 10000 m
Copertura 5-7 ottavi da 1500 piedi (457,2 m)
Temp 13°C Dew 11°C Ur 87% hPa 1018

Brindisi

TAF LIBR 170500Z 1706/1806 19012KT CAVOK=

le TAF di Brindisi delle 5z Previsioni dalle 6z alle 6z del 18

Vento da 190° S SW 12 nodi (22,224 km) Visibilitā 10000 m
Base delle Nubi e Visibilitā OK


Gioia del Colle

METAR LIBV 170655Z 17008KT 4000 BR BKN007 SCT015 11/11 Q1017 RMK OVC VIS MIN 4000 WIND THR32 18006KT WIND THR14 18007KT GRN=

METAR di Gioia del Colle del 17 alle 6,55z

Vento da 170° S SE 8 nodi (14,816 km) Visibilitā 4000 m , Foschia
Copertura 5-7 ottavi da 700 piedi (213,36 m)
Copertura 3-4 ottavi da 1500 piedi (457,2 m)
Temp 11°C Dew 11°C Ur 100% hPa 1017
Nuvolositā a 8 ottavi
Visibilitā Minima 4000 m

Giopia del Colle

le TAF di Gioia del Colle delle 5z Previsioni dalle 6z alle 15z

DATI NON PERVENUTI
2605112
Buongiorno e Buona Domenica a tutti Notizie Meteo dell'Italia da il Meteo .It http://ilMeteo.It la Situazione Italiana vista dal...
Discussione
17/03/2019 08:30:13
none
  • mi piace
    iLikeIt
    PublicVote
    1

Vuoi partecipare anche tu a questa discussione?

Rispondi per lasciare il tuo messaggio in questa discussione